sensor_id;sensor_type;location;lat;lon;timestamp;P1;durP1;ratioP1;P2;durP2;ratioP2
4232;SDS011;2130;48.472;11.934;2022-09-29T00:00:48;151.00;;;135.47;;
4232;SDS011;2130;48.472;11.934;2022-09-29T00:03:17;128.63;;;114.50;;
4232;SDS011;2130;48.472;11.934;2022-09-29T00:05:45;139.07;;;123.37;;
4232;SDS011;2130;48.472;11.934;2022-09-29T00:08:15;121.90;;;106.20;;
4232;SDS011;2130;48.472;11.934;2022-09-29T00:10:44;110.40;;;81.83;;
4232;SDS011;2130;48.472;11.934;2022-09-29T00:13:14;108.50;;;76.77;;
4232;SDS011;2130;48.472;11.934;2022-09-29T00:15:43;110.33;;;82.30;;
4232;SDS011;2130;48.472;11.934;2022-09-29T00:18:11;116.60;;;98.03;;
4232;SDS011;2130;48.472;11.934;2022-09-29T00:20:40;113.93;;;97.30;;
4232;SDS011;2130;48.472;11.934;2022-09-29T00:23:08;125.40;;;108.37;;
4232;SDS011;2130;48.472;11.934;2022-09-29T00:25:36;119.00;;;100.60;;
4232;SDS011;2130;48.472;11.934;2022-09-29T00:28:04;161.77;;;145.20;;
4232;SDS011;2130;48.472;11.934;2022-09-29T00:30:34;139.80;;;124.87;;
4232;SDS011;2130;48.472;11.934;2022-09-29T00:33:02;138.87;;;124.00;;
4232;SDS011;2130;48.472;11.934;2022-09-29T00:35:30;138.23;;;123.30;;
4232;SDS011;2130;48.472;11.934;2022-09-29T00:37:58;117.80;;;97.93;;
4232;SDS011;2130;48.472;11.934;2022-09-29T00:40:26;115.03;;;93.27;;
4232;SDS011;2130;48.472;11.934;2022-09-29T00:42:54;120.50;;;106.33;;
4232;SDS011;2130;48.472;11.934;2022-09-29T00:45:22;135.20;;;120.50;;
4232;SDS011;2130;48.472;11.934;2022-09-29T00:47:55;111.60;;;88.40;;
4232;SDS011;2130;48.472;11.934;2022-09-29T00:50:33;119.23;;;95.80;;
4232;SDS011;2130;48.472;11.934;2022-09-29T00:53:06;106.70;;;77.77;;
4232;SDS011;2130;48.472;11.934;2022-09-29T00:55:40;119.40;;;101.10;;
4232;SDS011;2130;48.472;11.934;2022-09-29T00:58:12;127.33;;;109.87;;
4232;SDS011;2130;48.472;11.934;2022-09-29T01:00:46;111.77;;;88.63;;
4232;SDS011;2130;48.472;11.934;2022-09-29T01:03:16;111.30;;;85.90;;
4232;SDS011;2130;48.472;11.934;2022-09-29T01:05:48;105.00;;;74.37;;
4232;SDS011;2130;48.472;11.934;2022-09-29T01:08:19;103.13;;;70.17;;
4232;SDS011;2130;48.472;11.934;2022-09-29T01:10:51;99.60;;;65.77;;
4232;SDS011;2130;48.472;11.934;2022-09-29T01:13:20;95.90;;;56.10;;
4232;SDS011;2130;48.472;11.934;2022-09-29T01:15:48;102.10;;;70.53;;
4232;SDS011;2130;48.472;11.934;2022-09-29T01:18:18;115.93;;;86.93;;
4232;SDS011;2130;48.472;11.934;2022-09-29T01:20:48;99.87;;;59.23;;
4232;SDS011;2130;48.472;11.934;2022-09-29T01:32:36;108.40;;;78.43;;
4232;SDS011;2130;48.472;11.934;2022-09-29T01:35:22;117.23;;;84.13;;
4232;SDS011;2130;48.472;11.934;2022-09-29T01:37:56;123.20;;;96.70;;
4232;SDS011;2130;48.472;11.934;2022-09-29T01:40:31;111.90;;;86.87;;
4232;SDS011;2130;48.472;11.934;2022-09-29T01:43:03;95.73;;;56.47;;
4232;SDS011;2130;48.472;11.934;2022-09-29T01:45:34;99.53;;;70.20;;
4232;SDS011;2130;48.472;11.934;2022-09-29T01:48:08;103.40;;;72.33;;
4232;SDS011;2130;48.472;11.934;2022-09-29T01:50:39;113.23;;;90.10;;
4232;SDS011;2130;48.472;11.934;2022-09-29T01:53:15;119.00;;;98.40;;
4232;SDS011;2130;48.472;11.934;2022-09-29T01:55:46;112.40;;;91.23;;
4232;SDS011;2130;48.472;11.934;2022-09-29T01:58:17;116.93;;;98.13;;
4232;SDS011;2130;48.472;11.934;2022-09-29T02:00:48;126.80;;;112.03;;
4232;SDS011;2130;48.472;11.934;2022-09-29T02:03:20;110.23;;;86.77;;
4232;SDS011;2130;48.472;11.934;2022-09-29T02:05:53;106.50;;;78.47;;
4232;SDS011;2130;48.472;11.934;2022-09-29T02:08:24;106.13;;;76.80;;
4232;SDS011;2130;48.472;11.934;2022-09-29T02:10:58;114.10;;;94.53;;
4232;SDS011;2130;48.472;11.934;2022-09-29T02:13:28;112.33;;;89.33;;
4232;SDS011;2130;48.472;11.934;2022-09-29T02:15:58;125.90;;;103.50;;
4232;SDS011;2130;48.472;11.934;2022-09-29T02:18:30;118.10;;;94.40;;
4232;SDS011;2130;48.472;11.934;2022-09-29T02:20:59;147.00;;;131.70;;
4232;SDS011;2130;48.472;11.934;2022-09-29T02:23:28;112.33;;;90.67;;
4232;SDS011;2130;48.472;11.934;2022-09-29T02:25:56;137.63;;;123.03;;
4232;SDS011;2130;48.472;11.934;2022-09-29T02:28:25;113.30;;;89.07;;
4232;SDS011;2130;48.472;11.934;2022-09-29T02:30:53;105.77;;;79.50;;
4232;SDS011;2130;48.472;11.934;2022-09-29T02:33:22;118.40;;;96.50;;
4232;SDS011;2130;48.472;11.934;2022-09-29T02:35:57;105.90;;;83.77;;
4232;SDS011;2130;48.472;11.934;2022-09-29T02:38:33;121.90;;;103.27;;
4232;SDS011;2130;48.472;11.934;2022-09-29T02:41:09;114.53;;;94.70;;
4232;SDS011;2130;48.472;11.934;2022-09-29T02:43:48;107.80;;;79.93;;
4232;SDS011;2130;48.472;11.934;2022-09-29T02:46:29;103.37;;;68.17;;
4232;SDS011;2130;48.472;11.934;2022-09-29T02:49:13;123.07;;;103.60;;
4232;SDS011;2130;48.472;11.934;2022-09-29T02:51:56;132.30;;;116.80;;
4232;SDS011;2130;48.472;11.934;2022-09-29T02:54:40;117.53;;;101.77;;
4232;SDS011;2130;48.472;11.934;2022-09-29T02:57:18;118.47;;;99.10;;
4232;SDS011;2130;48.472;11.934;2022-09-29T02:59:51;113.60;;;92.00;;
4232;SDS011;2130;48.472;11.934;2022-09-29T03:02:23;110.77;;;88.00;;
4232;SDS011;2130;48.472;11.934;2022-09-29T03:04:52;117.67;;;103.27;;
4232;SDS011;2130;48.472;11.934;2022-09-29T03:07:22;123.03;;;108.73;;
4232;SDS011;2130;48.472;11.934;2022-09-29T03:09:50;111.57;;;84.47;;
4232;SDS011;2130;48.472;11.934;2022-09-29T03:12:18;109.93;;;84.87;;
4232;SDS011;2130;48.472;11.934;2022-09-29T03:14:46;124.90;;;105.40;;
4232;SDS011;2130;48.472;11.934;2022-09-29T03:17:14;143.20;;;128.10;;
4232;SDS011;2130;48.472;11.934;2022-09-29T03:19:42;118.77;;;96.73;;
4232;SDS011;2130;48.472;11.934;2022-09-29T03:22:10;125.33;;;104.97;;
4232;SDS011;2130;48.472;11.934;2022-09-29T03:24:39;118.30;;;98.90;;
4232;SDS011;2130;48.472;11.934;2022-09-29T03:27:07;112.47;;;91.63;;
4232;SDS011;2130;48.472;11.934;2022-09-29T03:29:36;116.23;;;87.27;;
4232;SDS011;2130;48.472;11.934;2022-09-29T03:32:04;118.27;;;104.07;;
4232;SDS011;2130;48.472;11.934;2022-09-29T03:34:34;115.30;;;89.30;;
4232;SDS011;2130;48.472;11.934;2022-09-29T03:37:02;110.10;;;86.07;;
4232;SDS011;2130;48.472;11.934;2022-09-29T03:39:30;125.33;;;107.40;;
4232;SDS011;2130;48.472;11.934;2022-09-29T03:42:00;127.10;;;108.83;;
4232;SDS011;2130;48.472;11.934;2022-09-29T03:44:28;119.47;;;100.43;;
4232;SDS011;2130;48.472;11.934;2022-09-29T03:46:56;137.77;;;123.27;;
4232;SDS011;2130;48.472;11.934;2022-09-29T03:49:24;115.37;;;91.83;;
4232;SDS011;2130;48.472;11.934;2022-09-29T03:51:52;135.03;;;119.17;;
4232;SDS011;2130;48.472;11.934;2022-09-29T03:54:20;155.90;;;140.13;;
4232;SDS011;2130;48.472;11.934;2022-09-29T03:56:49;118.50;;;104.63;;
4232;SDS011;2130;48.472;11.934;2022-09-29T03:59:21;125.97;;;104.03;;
4232;SDS011;2130;48.472;11.934;2022-09-29T04:01:49;115.27;;;97.07;;
4232;SDS011;2130;48.472;11.934;2022-09-29T04:04:18;106.67;;;79.63;;
4232;SDS011;2130;48.472;11.934;2022-09-29T04:06:46;104.97;;;74.07;;
4232;SDS011;2130;48.472;11.934;2022-09-29T04:09:14;111.27;;;85.40;;
4232;SDS011;2130;48.472;11.934;2022-09-29T04:11:42;111.20;;;90.23;;
4232;SDS011;2130;48.472;11.934;2022-09-29T04:14:10;107.00;;;80.07;;
4232;SDS011;2130;48.472;11.934;2022-09-29T04:16:39;107.97;;;76.63;;
4232;SDS011;2130;48.472;11.934;2022-09-29T04:19:07;112.20;;;83.70;;
4232;SDS011;2130;48.472;11.934;2022-09-29T04:21:35;122.57;;;97.10;;
4232;SDS011;2130;48.472;11.934;2022-09-29T04:24:04;119.57;;;99.03;;
4232;SDS011;2130;48.472;11.934;2022-09-29T04:26:32;120.80;;;94.70;;
4232;SDS011;2130;48.472;11.934;2022-09-29T04:29:01;116.03;;;91.70;;
4232;SDS011;2130;48.472;11.934;2022-09-29T04:31:28;125.53;;;111.03;;
4232;SDS011;2130;48.472;11.934;2022-09-29T04:33:58;129.60;;;112.07;;
4232;SDS011;2130;48.472;11.934;2022-09-29T04:36:26;122.90;;;106.33;;
4232;SDS011;2130;48.472;11.934;2022-09-29T04:38:54;154.97;;;138.50;;
4232;SDS011;2130;48.472;11.934;2022-09-29T04:41:22;122.30;;;101.93;;
4232;SDS011;2130;48.472;11.934;2022-09-29T04:43:50;123.73;;;102.23;;
4232;SDS011;2130;48.472;11.934;2022-09-29T04:46:18;146.63;;;131.03;;
4232;SDS011;2130;48.472;11.934;2022-09-29T04:48:47;125.80;;;105.50;;
4232;SDS011;2130;48.472;11.934;2022-09-29T04:51:16;138.03;;;122.17;;
4232;SDS011;2130;48.472;11.934;2022-09-29T04:53:44;190.57;;;173.00;;
4232;SDS011;2130;48.472;11.934;2022-09-29T04:56:12;169.90;;;152.97;;
4232;SDS011;2130;48.472;11.934;2022-09-29T04:58:40;197.87;;;179.83;;
4232;SDS011;2130;48.472;11.934;2022-09-29T05:01:09;163.43;;;147.47;;
4232;SDS011;2130;48.472;11.934;2022-09-29T05:03:39;168.57;;;152.03;;
4232;SDS011;2130;48.472;11.934;2022-09-29T05:06:08;196.87;;;179.13;;
4232;SDS011;2130;48.472;11.934;2022-09-29T05:08:38;193.70;;;176.40;;
4232;SDS011;2130;48.472;11.934;2022-09-29T05:11:06;177.50;;;160.60;;
4232;SDS011;2130;48.472;11.934;2022-09-29T05:16:28;172.50;;;155.93;;
4232;SDS011;2130;48.472;11.934;2022-09-29T05:18:56;196.23;;;178.23;;
4232;SDS011;2130;48.472;11.934;2022-09-29T05:21:24;194.27;;;175.83;;
4232;SDS011;2130;48.472;11.934;2022-09-29T05:23:56;174.60;;;157.43;;
4232;SDS011;2130;48.472;11.934;2022-09-29T05:26:24;162.47;;;146.53;;
4232;SDS011;2130;48.472;11.934;2022-09-29T05:28:52;185.53;;;167.97;;
4232;SDS011;2130;48.472;11.934;2022-09-29T05:31:20;160.50;;;145.00;;
4232;SDS011;2130;48.472;11.934;2022-09-29T05:33:48;181.53;;;164.40;;
4232;SDS011;2130;48.472;11.934;2022-09-29T05:36:17;171.40;;;154.50;;
4232;SDS011;2130;48.472;11.934;2022-09-29T05:38:45;161.33;;;144.70;;
4232;SDS011;2130;48.472;11.934;2022-09-29T05:41:15;198.93;;;180.70;;
4232;SDS011;2130;48.472;11.934;2022-09-29T05:43:48;183.93;;;166.93;;
4232;SDS011;2130;48.472;11.934;2022-09-29T05:46:16;154.37;;;138.43;;
4232;SDS011;2130;48.472;11.934;2022-09-29T05:48:45;188.23;;;169.80;;
4232;SDS011;2130;48.472;11.934;2022-09-29T05:51:13;151.33;;;135.80;;
4232;SDS011;2130;48.472;11.934;2022-09-29T05:53:48;146.73;;;127.93;;
4232;SDS011;2130;48.472;11.934;2022-09-29T05:56:20;133.90;;;117.27;;
4232;SDS011;2130;48.472;11.934;2022-09-29T05:58:49;183.50;;;166.20;;
4232;SDS011;2130;48.472;11.934;2022-09-29T06:01:19;166.20;;;150.40;;
4232;SDS011;2130;48.472;11.934;2022-09-29T06:03:48;220.97;;;201.77;;
4232;SDS011;2130;48.472;11.934;2022-09-29T06:06:18;168.20;;;152.13;;
4232;SDS011;2130;48.472;11.934;2022-09-29T06:08:47;176.70;;;159.77;;
4232;SDS011;2130;48.472;11.934;2022-09-29T06:11:16;211.57;;;192.70;;
4232;SDS011;2130;48.472;11.934;2022-09-29T06:13:47;203.83;;;185.33;;
4232;SDS011;2130;48.472;11.934;2022-09-29T06:16:17;183.53;;;165.87;;
4232;SDS011;2130;48.472;11.934;2022-09-29T06:18:47;169.93;;;153.87;;
4232;SDS011;2130;48.472;11.934;2022-09-29T06:21:16;189.53;;;172.40;;
4232;SDS011;2130;48.472;11.934;2022-09-29T06:23:46;185.93;;;168.90;;
4232;SDS011;2130;48.472;11.934;2022-09-29T06:26:15;191.40;;;173.47;;
4232;SDS011;2130;48.472;11.934;2022-09-29T06:29:31;221.97;;;202.77;;
4232;SDS011;2130;48.472;11.934;2022-09-29T06:31:59;192.33;;;174.33;;
4232;SDS011;2130;48.472;11.934;2022-09-29T06:34:28;187.00;;;169.17;;
4232;SDS011;2130;48.472;11.934;2022-09-29T06:36:56;154.63;;;138.83;;
4232;SDS011;2130;48.472;11.934;2022-09-29T06:40:06;229.63;;;209.37;;
4232;SDS011;2130;48.472;11.934;2022-09-29T06:42:37;202.07;;;184.07;;
4232;SDS011;2130;48.472;11.934;2022-09-29T06:45:08;238.77;;;217.90;;
4232;SDS011;2130;48.472;11.934;2022-09-29T06:47:37;249.80;;;229.20;;
4232;SDS011;2130;48.472;11.934;2022-09-29T06:50:05;266.03;;;244.23;;
4232;SDS011;2130;48.472;11.934;2022-09-29T06:52:40;301.23;;;277.43;;
4232;SDS011;2130;48.472;11.934;2022-09-29T06:55:12;217.03;;;197.47;;
4232;SDS011;2130;48.472;11.934;2022-09-29T06:57:40;194.40;;;177.10;;
4232;SDS011;2130;48.472;11.934;2022-09-29T07:00:12;205.93;;;187.03;;
4232;SDS011;2130;48.472;11.934;2022-09-29T07:02:43;241.90;;;221.70;;
4232;SDS011;2130;48.472;11.934;2022-09-29T07:05:12;208.30;;;189.70;;
4232;SDS011;2130;48.472;11.934;2022-09-29T07:07:41;224.23;;;204.47;;
4232;SDS011;2130;48.472;11.934;2022-09-29T07:10:11;236.60;;;215.80;;
4232;SDS011;2130;48.472;11.934;2022-09-29T07:12:41;200.40;;;182.00;;
4232;SDS011;2130;48.472;11.934;2022-09-29T07:15:10;148.13;;;132.90;;
4232;SDS011;2130;48.472;11.934;2022-09-29T07:17:40;201.17;;;183.37;;
4232;SDS011;2130;48.472;11.934;2022-09-29T07:20:08;175.40;;;157.50;;
4232;SDS011;2130;48.472;11.934;2022-09-29T07:22:36;164.93;;;148.73;;
4232;SDS011;2130;48.472;11.934;2022-09-29T07:25:05;149.10;;;133.23;;
4232;SDS011;2130;48.472;11.934;2022-09-29T07:27:33;198.13;;;179.77;;
4232;SDS011;2130;48.472;11.934;2022-09-29T07:30:01;158.37;;;142.67;;
4232;SDS011;2130;48.472;11.934;2022-09-29T07:32:30;139.90;;;125.10;;
4232;SDS011;2130;48.472;11.934;2022-09-29T07:35:00;159.23;;;143.00;;
4232;SDS011;2130;48.472;11.934;2022-09-29T07:37:28;122.20;;;98.93;;
4232;SDS011;2130;48.472;11.934;2022-09-29T07:39:56;115.70;;;93.60;;
4232;SDS011;2130;48.472;11.934;2022-09-29T07:42:26;116.53;;;93.33;;
4232;SDS011;2130;48.472;11.934;2022-09-29T07:44:54;131.30;;;102.67;;
4232;SDS011;2130;48.472;11.934;2022-09-29T07:50:18;114.90;;;94.07;;
4232;SDS011;2130;48.472;11.934;2022-09-29T07:52:48;114.50;;;80.97;;
4232;SDS011;2130;48.472;11.934;2022-09-29T07:55:16;108.10;;;78.67;;
4232;SDS011;2130;48.472;11.934;2022-09-29T07:57:46;173.38;;;156.65;;
4232;SDS011;2130;48.472;11.934;2022-09-29T08:00:14;112.80;;;84.37;;
4232;SDS011;2130;48.472;11.934;2022-09-29T08:02:43;98.37;;;59.63;;
4232;SDS011;2130;48.472;11.934;2022-09-29T08:05:11;99.50;;;58.53;;
4232;SDS011;2130;48.472;11.934;2022-09-29T08:07:41;85.80;;;37.93;;
4232;SDS011;2130;48.472;11.934;2022-09-29T08:10:09;89.20;;;46.40;;
4232;SDS011;2130;48.472;11.934;2022-09-29T08:12:43;88.33;;;36.07;;
4232;SDS011;2130;48.472;11.934;2022-09-29T08:15:11;83.77;;;31.97;;
4232;SDS011;2130;48.472;11.934;2022-09-29T08:17:39;86.17;;;34.67;;
4232;SDS011;2130;48.472;11.934;2022-09-29T08:20:07;81.37;;;27.47;;
4232;SDS011;2130;48.472;11.934;2022-09-29T08:22:35;81.87;;;32.47;;
4232;SDS011;2130;48.472;11.934;2022-09-29T08:25:05;77.30;;;20.10;;
4232;SDS011;2130;48.472;11.934;2022-09-29T08:27:34;72.57;;;16.97;;
4232;SDS011;2130;48.472;11.934;2022-09-29T08:30:13;68.97;;;10.97;;
4232;SDS011;2130;48.472;11.934;2022-09-29T08:32:41;70.20;;;14.07;;
4232;SDS011;2130;48.472;11.934;2022-09-29T08:35:10;68.83;;;11.37;;
4232;SDS011;2130;48.472;11.934;2022-09-29T08:37:38;69.37;;;8.23;;
4232;SDS011;2130;48.472;11.934;2022-09-29T08:40:08;64.87;;;6.00;;
4232;SDS011;2130;48.472;11.934;2022-09-29T08:42:40;64.37;;;5.60;;
4232;SDS011;2130;48.472;11.934;2022-09-29T08:45:23;65.37;;;5.67;;
4232;SDS011;2130;48.472;11.934;2022-09-29T08:47:55;64.27;;;4.80;;
4232;SDS011;2130;48.472;11.934;2022-09-29T08:50:39;61.87;;;4.40;;
4232;SDS011;2130;48.472;11.934;2022-09-29T08:53:10;63.30;;;4.80;;
4232;SDS011;2130;48.472;11.934;2022-09-29T08:55:55;63.40;;;4.33;;
4232;SDS011;2130;48.472;11.934;2022-09-29T08:58:24;61.80;;;4.23;;
4232;SDS011;2130;48.472;11.934;2022-09-29T09:00:55;63.57;;;4.40;;
4232;SDS011;2130;48.472;11.934;2022-09-29T09:06:45;62.30;;;4.17;;
4232;SDS011;2130;48.472;11.934;2022-09-29T09:09:33;62.60;;;4.00;;
4232;SDS011;2130;48.472;11.934;2022-09-29T09:12:17;62.97;;;4.17;;
4232;SDS011;2130;48.472;11.934;2022-09-29T09:14:58;62.70;;;4.30;;
4232;SDS011;2130;48.472;11.934;2022-09-29T09:17:46;62.77;;;4.30;;
4232;SDS011;2130;48.472;11.934;2022-09-29T09:20:24;64.20;;;4.30;;
4232;SDS011;2130;48.472;11.934;2022-09-29T09:22:59;64.87;;;4.57;;
4232;SDS011;2130;48.472;11.934;2022-09-29T09:25:29;62.07;;;3.90;;
4232;SDS011;2130;48.472;11.934;2022-09-29T09:28:07;69.50;;;6.40;;
4232;SDS011;2130;48.472;11.934;2022-09-29T09:30:41;62.77;;;4.67;;
4232;SDS011;2130;48.472;11.934;2022-09-29T09:33:14;62.97;;;4.53;;
4232;SDS011;2130;48.472;11.934;2022-09-29T09:35:58;63.10;;;4.33;;
4232;SDS011;2130;48.472;11.934;2022-09-29T09:38:33;63.47;;;4.13;;
4232;SDS011;2130;48.472;11.934;2022-09-29T09:41:07;62.37;;;4.30;;
4232;SDS011;2130;48.472;11.934;2022-09-29T09:43:39;62.80;;;4.20;;
4232;SDS011;2130;48.472;11.934;2022-09-29T09:46:11;62.60;;;4.17;;
4232;SDS011;2130;48.472;11.934;2022-09-29T09:48:43;63.07;;;4.30;;
4232;SDS011;2130;48.472;11.934;2022-09-29T09:51:20;61.67;;;4.03;;
4232;SDS011;2130;48.472;11.934;2022-09-29T09:53:57;62.27;;;3.90;;
4232;SDS011;2130;48.472;11.934;2022-09-29T09:56:37;62.27;;;4.13;;
4232;SDS011;2130;48.472;11.934;2022-09-29T09:59:34;62.57;;;4.27;;
4232;SDS011;2130;48.472;11.934;2022-09-29T10:02:10;61.33;;;3.70;;
4232;SDS011;2130;48.472;11.934;2022-09-29T10:04:43;62.33;;;3.97;;
4232;SDS011;2130;48.472;11.934;2022-09-29T10:07:12;62.80;;;4.00;;
4232;SDS011;2130;48.472;11.934;2022-09-29T10:09:40;64.57;;;4.30;;
4232;SDS011;2130;48.472;11.934;2022-09-29T10:12:09;64.23;;;4.20;;
4232;SDS011;2130;48.472;11.934;2022-09-29T10:14:43;64.00;;;4.00;;
4232;SDS011;2130;48.472;11.934;2022-09-29T10:17:14;62.00;;;4.03;;
4232;SDS011;2130;48.472;11.934;2022-09-29T10:19:51;62.43;;;3.70;;
4232;SDS011;2130;48.472;11.934;2022-09-29T10:22:20;61.47;;;3.70;;
4232;SDS011;2130;48.472;11.934;2022-09-29T10:24:50;61.50;;;3.47;;
4232;SDS011;2130;48.472;11.934;2022-09-29T10:27:22;62.33;;;3.60;;
4232;SDS011;2130;48.472;11.934;2022-09-29T10:29:53;63.20;;;3.57;;
4232;SDS011;2130;48.472;11.934;2022-09-29T10:32:25;61.97;;;3.47;;
4232;SDS011;2130;48.472;11.934;2022-09-29T10:35:04;61.70;;;3.43;;
4232;SDS011;2130;48.472;11.934;2022-09-29T10:37:37;61.20;;;3.30;;
4232;SDS011;2130;48.472;11.934;2022-09-29T10:40:13;61.57;;;3.40;;
4232;SDS011;2130;48.472;11.934;2022-09-29T10:42:44;61.87;;;3.90;;
4232;SDS011;2130;48.472;11.934;2022-09-29T10:45:16;61.87;;;3.33;;
4232;SDS011;2130;48.472;11.934;2022-09-29T10:47:46;61.57;;;3.50;;
4232;SDS011;2130;48.472;11.934;2022-09-29T10:50:17;62.00;;;3.40;;
4232;SDS011;2130;48.472;11.934;2022-09-29T10:52:48;62.27;;;3.10;;
4232;SDS011;2130;48.472;11.934;2022-09-29T10:55:19;61.50;;;3.27;;
4232;SDS011;2130;48.472;11.934;2022-09-29T10:57:48;61.10;;;2.80;;
4232;SDS011;2130;48.472;11.934;2022-09-29T11:00:29;61.27;;;3.03;;
4232;SDS011;2130;48.472;11.934;2022-09-29T11:03:04;62.10;;;3.07;;
4232;SDS011;2130;48.472;11.934;2022-09-29T11:05:35;63.00;;;3.40;;
4232;SDS011;2130;48.472;11.934;2022-09-29T11:08:03;61.00;;;3.00;;
4232;SDS011;2130;48.472;11.934;2022-09-29T11:10:38;61.20;;;3.23;;
4232;SDS011;2130;48.472;11.934;2022-09-29T11:16:12;64.30;;;4.77;;
4232;SDS011;2130;48.472;11.934;2022-09-29T11:18:42;61.80;;;3.23;;
4232;SDS011;2130;48.472;11.934;2022-09-29T11:24:17;62.13;;;3.40;;
4232;SDS011;2130;48.472;11.934;2022-09-29T11:26:53;75.07;;;11.70;;
4232;SDS011;2130;48.472;11.934;2022-09-29T11:29:28;64.00;;;4.00;;
4232;SDS011;2130;48.472;11.934;2022-09-29T11:32:09;61.37;;;3.10;;
4232;SDS011;2130;48.472;11.934;2022-09-29T11:34:46;62.70;;;3.80;;
4232;SDS011;2130;48.472;11.934;2022-09-29T11:37:37;64.83;;;3.40;;
4232;SDS011;2130;48.472;11.934;2022-09-29T11:40:16;62.63;;;3.67;;
4232;SDS011;2130;48.472;11.934;2022-09-29T11:42:51;61.90;;;3.60;;
4232;SDS011;2130;48.472;11.934;2022-09-29T11:45:29;62.17;;;3.40;;
4232;SDS011;2130;48.472;11.934;2022-09-29T11:48:19;61.33;;;3.40;;
4232;SDS011;2130;48.472;11.934;2022-09-29T11:50:57;65.17;;;3.90;;
4232;SDS011;2130;48.472;11.934;2022-09-29T11:53:36;62.27;;;3.60;;
4232;SDS011;2130;48.472;11.934;2022-09-29T11:56:14;62.30;;;3.70;;
4232;SDS011;2130;48.472;11.934;2022-09-29T11:58:51;61.53;;;3.43;;
4232;SDS011;2130;48.472;11.934;2022-09-29T12:01:25;61.73;;;3.70;;
4232;SDS011;2130;48.472;11.934;2022-09-29T12:04:12;62.20;;;3.87;;
4232;SDS011;2130;48.472;11.934;2022-09-29T12:06:49;63.30;;;3.90;;
4232;SDS011;2130;48.472;11.934;2022-09-29T12:12:10;61.87;;;3.53;;
4232;SDS011;2130;48.472;11.934;2022-09-29T12:14:59;63.03;;;4.00;;
4232;SDS011;2130;48.472;11.934;2022-09-29T12:17:34;62.77;;;3.97;;
4232;SDS011;2130;48.472;11.934;2022-09-29T12:20:13;61.47;;;3.63;;
4232;SDS011;2130;48.472;11.934;2022-09-29T12:22:44;62.60;;;4.30;;
4232;SDS011;2130;48.472;11.934;2022-09-29T12:25:14;62.37;;;4.10;;
4232;SDS011;2130;48.472;11.934;2022-09-29T12:27:44;63.23;;;4.00;;
4232;SDS011;2130;48.472;11.934;2022-09-29T12:30:19;62.47;;;3.70;;
4232;SDS011;2130;48.472;11.934;2022-09-29T12:32:49;62.57;;;4.03;;
4232;SDS011;2130;48.472;11.934;2022-09-29T12:35:22;62.20;;;4.10;;
4232;SDS011;2130;48.472;11.934;2022-09-29T12:37:56;62.97;;;4.10;;
4232;SDS011;2130;48.472;11.934;2022-09-29T12:40:28;62.40;;;3.70;;
4232;SDS011;2130;48.472;11.934;2022-09-29T12:43:04;62.60;;;4.00;;
4232;SDS011;2130;48.472;11.934;2022-09-29T12:45:40;63.43;;;3.97;;
4232;SDS011;2130;48.472;11.934;2022-09-29T12:48:16;65.90;;;4.43;;
4232;SDS011;2130;48.472;11.934;2022-09-29T12:50:53;63.70;;;4.03;;
4232;SDS011;2130;48.472;11.934;2022-09-29T12:53:27;62.57;;;3.90;;
4232;SDS011;2130;48.472;11.934;2022-09-29T12:55:59;62.80;;;4.00;;
4232;SDS011;2130;48.472;11.934;2022-09-29T12:58:31;62.60;;;4.10;;
4232;SDS011;2130;48.472;11.934;2022-09-29T13:01:08;64.30;;;4.30;;
4232;SDS011;2130;48.472;11.934;2022-09-29T13:03:51;64.47;;;4.80;;
4232;SDS011;2130;48.472;11.934;2022-09-29T13:09:49;66.00;;;4.50;;
4232;SDS011;2130;48.472;11.934;2022-09-29T13:12:40;66.50;;;5.23;;
4232;SDS011;2130;48.472;11.934;2022-09-29T13:15:22;66.10;;;5.50;;
4232;SDS011;2130;48.472;11.934;2022-09-29T13:21:26;63.07;;;3.90;;
4232;SDS011;2130;48.472;11.934;2022-09-29T13:24:05;65.23;;;4.13;;
4232;SDS011;2130;48.472;11.934;2022-09-29T13:26:47;63.70;;;4.00;;
4232;SDS011;2130;48.472;11.934;2022-09-29T13:29:20;64.67;;;3.97;;
4232;SDS011;2130;48.472;11.934;2022-09-29T13:31:49;62.70;;;4.30;;
4232;SDS011;2130;48.472;11.934;2022-09-29T13:34:21;63.57;;;4.00;;
4232;SDS011;2130;48.472;11.934;2022-09-29T13:37:02;63.97;;;3.80;;
4232;SDS011;2130;48.472;11.934;2022-09-29T13:39:32;63.30;;;3.83;;
4232;SDS011;2130;48.472;11.934;2022-09-29T13:51:21;63.40;;;3.83;;
4232;SDS011;2130;48.472;11.934;2022-09-29T13:57:17;63.73;;;4.33;;
4232;SDS011;2130;48.472;11.934;2022-09-29T14:03:00;62.40;;;3.63;;
4232;SDS011;2130;48.472;11.934;2022-09-29T14:05:34;65.03;;;4.53;;
4232;SDS011;2130;48.472;11.934;2022-09-29T14:08:15;63.90;;;3.87;;
4232;SDS011;2130;48.472;11.934;2022-09-29T14:10:47;63.57;;;4.20;;
4232;SDS011;2130;48.472;11.934;2022-09-29T14:13:19;69.93;;;6.43;;
4232;SDS011;2130;48.472;11.934;2022-09-29T14:16:00;63.27;;;3.97;;
4232;SDS011;2130;48.472;11.934;2022-09-29T14:18:35;62.70;;;4.17;;
4232;SDS011;2130;48.472;11.934;2022-09-29T14:21:09;62.87;;;4.10;;
4232;SDS011;2130;48.472;11.934;2022-09-29T14:23:49;63.40;;;4.20;;
4232;SDS011;2130;48.472;11.934;2022-09-29T14:29:10;66.83;;;4.73;;
4232;SDS011;2130;48.472;11.934;2022-09-29T14:31:44;64.03;;;4.50;;
4232;SDS011;2130;48.472;11.934;2022-09-29T14:34:19;64.47;;;4.10;;
4232;SDS011;2130;48.472;11.934;2022-09-29T14:36:50;62.97;;;3.70;;
4232;SDS011;2130;48.472;11.934;2022-09-29T14:39:20;63.10;;;4.30;;
4232;SDS011;2130;48.472;11.934;2022-09-29T14:41:53;63.20;;;3.93;;
4232;SDS011;2130;48.472;11.934;2022-09-29T14:44:22;63.00;;;3.70;;
4232;SDS011;2130;48.472;11.934;2022-09-29T14:46:55;63.00;;;3.80;;
4232;SDS011;2130;48.472;11.934;2022-09-29T14:49:51;63.40;;;4.37;;
4232;SDS011;2130;48.472;11.934;2022-09-29T14:53:01;62.10;;;3.70;;
4232;SDS011;2130;48.472;11.934;2022-09-29T14:55:37;63.47;;;4.20;;
4232;SDS011;2130;48.472;11.934;2022-09-29T14:58:23;63.20;;;4.00;;
4232;SDS011;2130;48.472;11.934;2022-09-29T15:01:01;63.13;;;4.03;;
4232;SDS011;2130;48.472;11.934;2022-09-29T15:03:37;64.00;;;3.77;;
4232;SDS011;2130;48.472;11.934;2022-09-29T15:06:12;65.40;;;4.00;;
4232;SDS011;2130;48.472;11.934;2022-09-29T15:08:42;62.70;;;3.90;;
4232;SDS011;2130;48.472;11.934;2022-09-29T15:11:23;64.40;;;4.87;;
4232;SDS011;2130;48.472;11.934;2022-09-29T15:13:56;64.70;;;5.03;;
4232;SDS011;2130;48.472;11.934;2022-09-29T15:16:28;64.27;;;4.90;;
4232;SDS011;2130;48.472;11.934;2022-09-29T15:19:08;64.63;;;5.00;;
4232;SDS011;2130;48.472;11.934;2022-09-29T15:21:52;64.63;;;4.50;;
4232;SDS011;2130;48.472;11.934;2022-09-29T15:24:35;64.30;;;4.87;;
4232;SDS011;2130;48.472;11.934;2022-09-29T15:27:12;66.17;;;5.20;;
4232;SDS011;2130;48.472;11.934;2022-09-29T15:29:43;65.50;;;5.43;;
4232;SDS011;2130;48.472;11.934;2022-09-29T15:32:18;66.00;;;5.47;;
4232;SDS011;2130;48.472;11.934;2022-09-29T15:34:48;68.30;;;7.00;;
4232;SDS011;2130;48.472;11.934;2022-09-29T15:37:23;71.83;;;7.90;;
4232;SDS011;2130;48.472;11.934;2022-09-29T15:39:51;76.10;;;8.10;;
4232;SDS011;2130;48.472;11.934;2022-09-29T15:42:20;79.00;;;8.80;;
4232;SDS011;2130;48.472;11.934;2022-09-29T15:44:52;72.07;;;7.97;;
4232;SDS011;2130;48.472;11.934;2022-09-29T15:47:28;70.90;;;7.17;;
4232;SDS011;2130;48.472;11.934;2022-09-29T15:50:03;68.57;;;6.50;;
4232;SDS011;2130;48.472;11.934;2022-09-29T15:52:33;65.60;;;5.40;;